Dorchester, Iowa
Current Conditions -  °F | °C
As of 4:15 AM on Thursday 29 Jan 2015 (Local Time) from KDEH Reporting Station
Haze Haze  
Wind Chill: 21°   Ceiling: 1100
Heat Index: 32°   Visibility: 6mi
Dew Point: 28°   Wind: 16mph
Humidity: 87%   Direction: 350°N
Pressure: 29.84"   Gusts: 25mph
Location:  43.48°N, 91.51°W
Report Text: KDEH 291015Z AUTO 35014G22KT 6SM BR OVC011 M00/M02 A2984 RMK AO2
Loading
Personal Weather Stations






























Interactive Weather Map New forecast layout! Learn more

10-Day Weather Forecast

Advertisements
Track Severe Weather on mobile